Terminal Aerodrome Forecast
Issued by NWS Upton, NY

Home | Current Version | Previous Version | Text Only | Print | Product List | Glossary On
Versions: 1 2 3 4 5 6 7 8 9 10 11 12 13 14 15 16 17 18 19 20 21 22 23 24 25 26 27 28 29
964
FTUS41 KOKX 300412 AAB
TAFISP
TAF AMD
KISP 300412Z 3004/3024 09006KT P6SM BKN010 OVC025
      TEMPO 3004/3005 BKN007 OVC012
     FM300500 VRB04KT 3SM -DZ BR OVC008
     FM300700 VRB04KT 2SM -DZ BR OVC005
     FM301300 VRB05KT 5SM BR BKN008 OVC012
     FM301500 14008KT P6SM OVC015
     FM301800 15010KT P6SM BKN015=

USA.gov is the U.S. government's official web portal to all federal, state and local government web resources and services.